Flexbury, United Kingdom
Current Conditions -  °F | °C
As of 9:20 PM on Sunday 25 Jan 2015 (Local Time) from EGHQ Reporting Station
Moderate Rain Moderate Rain  
Wind Chill:   Ceiling: 100
Heat Index:   Visibility: 0.37mi
Dew Point:   Wind: 12mph
Humidity: 93%   Direction: 230°SW
Pressure: 30.36"   Gusts: NA
Location:  50.84°N, 4.54°W
Report Text: EGHQ 252120Z 23010KT 0600 RADZ FG OVC001 09/08 Q1028
Loading
Personal Weather Stations






























Interactive Weather Map New forecast layout! Learn more

10-Day Weather Forecast

Advertisements
Track Severe Weather on mobile